Dr.kaiyo — JD2325 — position and weather

sailwx.info

Track history (hours):
 
Tides and Currents Weather Stations Pressure Air Temp Water Temp Dewpoint Dewpoint Depression Visibility Wind Speed Wind Dir Waves Ship Positions

Dr.kaiyo

Last reported at 2014-Oct-02 04:33 UTC. Time now 2014-Oct-02 08:35 UTC.
Position N 34°41' E 135°12'.

Length 31 m.

Type: Other ship. MMSI: 431301823.

Date/timePositionNaut miles runAvg speedWind from/ knotsBaromVisibWave heightAir tempDewpointWater temp
2014-Oct-02 04:33N 34°41' E 135°12'3 2.7
2014-Oct-02 03:33N 34°39' E 135°12'1 0.9
2014-Oct-02 02:33N 34°38' E 135°11'1211.3
2014-Oct-02 01:31N 34°29' E 135°02'1111.4
2014-Oct-02 00:33N 34°38' E 135°11'3 3.5
2014-Oct-01 23:33N 34°41' E 135°13'1 0.0
2014-Oct-01 04:33N 34°42' E 135°13'4 3.6
2014-Oct-01 03:33N 34°38' E 135°11'2 2.2
2014-Oct-01 02:33N 34°37' E 135°13'9 9.2
2014-Oct-01 01:34N 34°32' E 135°03'8 7.7
2014-Oct-01 00:33N 34°31' E 135°12'1110.6
2014-Sep-30 23:33N 34°42' E 135°12'0 0.0
2014-Sep-30 05:30N 34°41' E 135°12'7 7.9
2014-Sep-30 04:34N 34°35' E 135°17'4 3.7
2014-Sep-30 03:33N 34°32' E 135°18'6 5.9
2014-Sep-30 02:34N 34°30' E 135°11'2 1.9
2014-Sep-30 01:33N 34°29' E 135°09'7 6.8
2014-Sep-30 00:34N 34°34' E 135°14'7 7.3
2014-Sep-29 23:34N 34°41' E 135°12'0 0.0
2014-Sep-29 06:07N 34°41' E 135°12'3 5.7
2014-Sep-29 05:33N 34°40' E 135°16'7 7.3
2014-Sep-29 04:33N 34°33' E 135°13'3 3.3
2014-Sep-29 03:32N 34°31' E 135°17'5 4.8
2014-Sep-29 02:33N 34°29' E 135°11'9 8.7
2014-Sep-29 01:33N 34°24' E 135°03'1110.8
2014-Sep-29 00:33N 34°34' E 135°06'9 9.0
2014-Sep-28 23:33N 34°41' E 135°12'  
2014-Sep-26 05:26N 34°41' E 135°12'4 4.7
2014-Sep-26 04:33N 34°38' E 135°10'0 0.0
2014-Sep-26 03:33N 34°38' E 135°10'8 7.7
2014-Sep-26 02:33N 34°32' E 135°03'3 3.4
2014-Sep-26 01:33N 34°29' E 135°05'8 7.9
2014-Sep-26 00:33N 34°34' E 135°13'8 8.0
2014-Sep-25 23:33N 34°42' E 135°12'0 0.0
2014-Sep-25 05:22N 34°41' E 135°12'4 5.1
2014-Sep-25 04:33N 34°41' E 135°17'2 1.6
2014-Sep-25 03:33N 34°41' E 135°19'3 2.9
2014-Sep-25 02:33N 34°38' E 135°19'1110.8
2014-Sep-25 01:33N 34°29' E 135°12'6 6.2
2014-Sep-25 00:33N 34°35' E 135°12'7 6.8
2014-Sep-24 23:34N 34°42' E 135°12'0 0.0
2014-Sep-24 05:33N 34°41' E 135°12'5 4.9
2014-Sep-24 04:33N 34°38' E 135°16'4 3.6
2014-Sep-24 03:33N 34°40' E 135°19'4 3.6
2014-Sep-24 02:33N 34°38' E 135°16'1313.2
2014-Sep-24 01:33N 34°31' E 135°02'7 6.7
2014-Sep-24 00:33N 34°35' E 135°09'7 7.4
2014-Sep-23 23:33N 34°42' E 135°12'  
Track history (hours):
 
Tides and Currents Weather Stations Pressure Air Temp Water Temp Dewpoint Dewpoint Depression Visibility Wind Speed Wind Dir Waves Ship Positions

Dr.kaiyo

Last reported at 2014-Oct-02 04:33 UTC. Time now 2014-Oct-02 08:35 UTC.
Position N 34°41' E 135°12'.

Length 31 m.

Type: Other ship. MMSI: 431301823.

Date/timePositionNaut miles runAvg speedWind from/ knotsBaromVisibWave heightAir tempDewpointWater temp
2014-Oct-02 04:33N 34°41' E 135°12'3 2.7
2014-Oct-02 03:33N 34°39' E 135°12'1 0.9
2014-Oct-02 02:33N 34°38' E 135°11'1211.3
2014-Oct-02 01:31N 34°29' E 135°02'1111.4
2014-Oct-02 00:33N 34°38' E 135°11'3 3.5
2014-Oct-01 23:33N 34°41' E 135°13'1 0.0
2014-Oct-01 04:33N 34°42' E 135°13'4 3.6
2014-Oct-01 03:33N 34°38' E 135°11'2 2.2
2014-Oct-01 02:33N 34°37' E 135°13'9 9.2
2014-Oct-01 01:34N 34°32' E 135°03'8 7.7
2014-Oct-01 00:33N 34°31' E 135°12'1110.6
2014-Sep-30 23:33N 34°42' E 135°12'0 0.0
2014-Sep-30 05:30N 34°41' E 135°12'7 7.9
2014-Sep-30 04:34N 34°35' E 135°17'4 3.7
2014-Sep-30 03:33N 34°32' E 135°18'6 5.9
2014-Sep-30 02:34N 34°30' E 135°11'2 1.9
2014-Sep-30 01:33N 34°29' E 135°09'7 6.8
2014-Sep-30 00:34N 34°34' E 135°14'7 7.3
2014-Sep-29 23:34N 34°41' E 135°12'0 0.0
2014-Sep-29 06:07N 34°41' E 135°12'3 5.7
2014-Sep-29 05:33N 34°40' E 135°16'7 7.3
2014-Sep-29 04:33N 34°33' E 135°13'3 3.3
2014-Sep-29 03:32N 34°31' E 135°17'5 4.8
2014-Sep-29 02:33N 34°29' E 135°11'9 8.7
2014-Sep-29 01:33N 34°24' E 135°03'1110.8
2014-Sep-29 00:33N 34°34' E 135°06'9 9.0
2014-Sep-28 23:33N 34°41' E 135°12'  
2014-Sep-26 05:26N 34°41' E 135°12'4 4.7
2014-Sep-26 04:33N 34°38' E 135°10'0 0.0
2014-Sep-26 03:33N 34°38' E 135°10'8 7.7
2014-Sep-26 02:33N 34°32' E 135°03'3 3.4
2014-Sep-26 01:33N 34°29' E 135°05'8 7.9
2014-Sep-26 00:33N 34°34' E 135°13'8 8.0
2014-Sep-25 23:33N 34°42' E 135°12'0 0.0
2014-Sep-25 05:22N 34°41' E 135°12'4 5.1
2014-Sep-25 04:33N 34°41' E 135°17'2 1.6
2014-Sep-25 03:33N 34°41' E 135°19'3 2.9
2014-Sep-25 02:33N 34°38' E 135°19'1110.8
2014-Sep-25 01:33N 34°29' E 135°12'6 6.2
2014-Sep-25 00:33N 34°35' E 135°12'7 6.8
2014-Sep-24 23:34N 34°42' E 135°12'0 0.0
2014-Sep-24 05:33N 34°41' E 135°12'5 4.9
2014-Sep-24 04:33N 34°38' E 135°16'4 3.6
2014-Sep-24 03:33N 34°40' E 135°19'4 3.6
2014-Sep-24 02:33N 34°38' E 135°16'1313.2
2014-Sep-24 01:33N 34°31' E 135°02'7 6.7
2014-Sep-24 00:33N 34°35' E 135°09'7 7.4
2014-Sep-23 23:33N 34°42' E 135°12'  

Dump ship's entire track history